sensor_id;sensor_type;location;lat;lon;timestamp;pressure;altitude;pressure_sealevel;temperature;humidity
76229;BME280;65021;53.174;18.160;2023-08-24T00:01:42;101253.94;;;18.51;80.99
76229;BME280;65021;53.174;18.160;2023-08-24T00:04:09;101254.77;;;18.52;81.44
76229;BME280;65021;53.174;18.160;2023-08-24T00:06:36;101251.79;;;18.52;81.44
76229;BME280;65021;53.174;18.160;2023-08-24T00:09:03;101251.85;;;18.52;81.80
76229;BME280;65021;53.174;18.160;2023-08-24T00:11:31;101253.65;;;18.52;81.84
76229;BME280;65021;53.174;18.160;2023-08-24T00:13:58;101250.54;;;18.52;81.99
76229;BME280;65021;53.174;18.160;2023-08-24T00:16:25;101251.16;;;18.53;81.57
76229;BME280;65021;53.174;18.160;2023-08-24T00:18:52;101251.67;;;18.53;82.05
76229;BME280;65021;53.174;18.160;2023-08-24T00:21:18;101249.36;;;18.54;83.53
76229;BME280;65021;53.174;18.160;2023-08-24T00:23:49;101249.98;;;18.53;83.39
76229;BME280;65021;53.174;18.160;2023-08-24T00:26:16;101245.20;;;18.52;83.27
76229;BME280;65021;53.174;18.160;2023-08-24T00:28:46;101250.95;;;18.50;83.19
76229;BME280;65021;53.174;18.160;2023-08-24T00:31:15;101254.73;;;18.49;83.17
76229;BME280;65021;53.174;18.160;2023-08-24T00:33:42;101255.58;;;18.46;84.48
76229;BME280;65021;53.174;18.160;2023-08-24T00:36:09;101259.73;;;18.42;85.69
76229;BME280;65021;53.174;18.160;2023-08-24T00:38:35;101259.07;;;18.39;84.99
76229;BME280;65021;53.174;18.160;2023-08-24T00:41:03;101265.05;;;18.35;85.65
76229;BME280;65021;53.174;18.160;2023-08-24T00:43:29;101261.17;;;18.32;85.35
76229;BME280;65021;53.174;18.160;2023-08-24T00:45:58;101262.47;;;18.27;85.23
76229;BME280;65021;53.174;18.160;2023-08-24T00:48:26;101257.76;;;18.22;85.32
76229;BME280;65021;53.174;18.160;2023-08-24T00:50:56;101258.90;;;18.16;85.24
76229;BME280;65021;53.174;18.160;2023-08-24T00:53:24;101262.17;;;18.10;85.23
76229;BME280;65021;53.174;18.160;2023-08-24T00:55:52;101265.27;;;18.06;85.69
76229;BME280;65021;53.174;18.160;2023-08-24T00:58:20;101273.77;;;18.00;85.90
76229;BME280;65021;53.174;18.160;2023-08-24T01:00:48;101276.32;;;17.93;86.25
76229;BME280;65021;53.174;18.160;2023-08-24T01:03:15;101277.73;;;17.87;86.28
76229;BME280;65021;53.174;18.160;2023-08-24T01:05:43;101277.52;;;17.79;86.53
76229;BME280;65021;53.174;18.160;2023-08-24T01:08:11;101275.02;;;17.63;86.90
76229;BME280;65021;53.174;18.160;2023-08-24T01:13:23;101275.91;;;17.24;89.81
76229;BME280;65021;53.174;18.160;2023-08-24T01:15:56;101274.88;;;17.11;90.54
76229;BME280;65021;53.174;18.160;2023-08-24T01:18:24;101276.45;;;16.95;91.45
76229;BME280;65021;53.174;18.160;2023-08-24T01:20:53;101283.66;;;16.83;92.62
76229;BME280;65021;53.174;18.160;2023-08-24T01:26:03;101288.34;;;16.73;93.99
76229;BME280;65021;53.174;18.160;2023-08-24T01:28:30;101289.10;;;16.68;94.35
76229;BME280;65021;53.174;18.160;2023-08-24T01:30:57;101284.33;;;16.59;94.21
76229;BME280;65021;53.174;18.160;2023-08-24T01:33:24;101285.69;;;16.51;94.81
76229;BME280;65021;53.174;18.160;2023-08-24T01:35:51;101282.04;;;16.43;94.46
76229;BME280;65021;53.174;18.160;2023-08-24T01:38:18;101281.62;;;16.29;95.34
76229;BME280;65021;53.174;18.160;2023-08-24T01:43:34;101283.06;;;16.00;95.34
76229;BME280;65021;53.174;18.160;2023-08-24T01:46:07;101289.67;;;15.84;95.65
76229;BME280;65021;53.174;18.160;2023-08-24T01:48:34;101284.02;;;15.71;96.79
76229;BME280;65021;53.174;18.160;2023-08-24T01:51:01;101285.17;;;15.63;96.52
76229;BME280;65021;53.174;18.160;2023-08-24T01:53:30;101284.64;;;15.53;96.86
76229;BME280;65021;53.174;18.160;2023-08-24T01:55:56;101279.00;;;15.40;97.11
76229;BME280;65021;53.174;18.160;2023-08-24T01:58:23;101284.33;;;15.30;97.81
76229;BME280;65021;53.174;18.160;2023-08-24T02:00:50;101284.19;;;15.23;98.40
76229;BME280;65021;53.174;18.160;2023-08-24T02:03:16;101290.75;;;15.18;98.53
76229;BME280;65021;53.174;18.160;2023-08-24T02:05:43;101290.05;;;15.14;99.09
76229;BME280;65021;53.174;18.160;2023-08-24T02:08:10;101286.44;;;15.13;99.22
76229;BME280;65021;53.174;18.160;2023-08-24T02:10:36;101289.66;;;15.05;99.18
76229;BME280;65021;53.174;18.160;2023-08-24T02:13:03;101289.67;;;15.00;99.91
76229;BME280;65021;53.174;18.160;2023-08-24T02:15:29;101289.15;;;14.99;99.90
76229;BME280;65021;53.174;18.160;2023-08-24T02:17:56;101289.34;;;14.95;99.96
76229;BME280;65021;53.174;18.160;2023-08-24T02:20:22;101286.33;;;14.88;99.89
76229;BME280;65021;53.174;18.160;2023-08-24T02:22:49;101281.98;;;14.79;99.63
76229;BME280;65021;53.174;18.160;2023-08-24T02:25:15;101283.18;;;14.73;99.81
76229;BME280;65021;53.174;18.160;2023-08-24T02:27:42;101280.43;;;14.68;99.79
76229;BME280;65021;53.174;18.160;2023-08-24T02:30:09;101284.02;;;14.60;99.85
76229;BME280;65021;53.174;18.160;2023-08-24T02:32:35;101277.90;;;14.49;99.95
76229;BME280;65021;53.174;18.160;2023-08-24T02:35:02;101278.85;;;14.45;100.00
76229;BME280;65021;53.174;18.160;2023-08-24T02:37:29;101282.20;;;14.41;100.00
76229;BME280;65021;53.174;18.160;2023-08-24T02:39:55;101283.70;;;14.39;100.00
76229;BME280;65021;53.174;18.160;2023-08-24T02:42:22;101280.32;;;14.42;100.00
76229;BME280;65021;53.174;18.160;2023-08-24T02:44:49;101282.40;;;14.42;100.00
76229;BME280;65021;53.174;18.160;2023-08-24T02:47:15;101281.67;;;14.47;100.00
76229;BME280;65021;53.174;18.160;2023-08-24T02:49:42;101287.02;;;14.54;100.00
76229;BME280;65021;53.174;18.160;2023-08-24T02:52:08;101284.47;;;14.60;100.00
76229;BME280;65021;53.174;18.160;2023-08-24T02:54:35;101288.60;;;14.64;100.00
76229;BME280;65021;53.174;18.160;2023-08-24T02:57:01;101287.22;;;14.68;100.00
76229;BME280;65021;53.174;18.160;2023-08-24T02:59:28;101284.91;;;14.72;100.00
76229;BME280;65021;53.174;18.160;2023-08-24T03:01:55;101281.17;;;14.79;100.00
76229;BME280;65021;53.174;18.160;2023-08-24T03:04:22;101280.51;;;14.82;100.00
76229;BME280;65021;53.174;18.160;2023-08-24T03:06:48;101275.73;;;14.85;100.00
76229;BME280;65021;53.174;18.160;2023-08-24T03:09:15;101274.92;;;14.89;100.00
76229;BME280;65021;53.174;18.160;2023-08-24T03:11:41;101272.89;;;14.92;100.00
76229;BME280;65021;53.174;18.160;2023-08-24T03:14:08;101270.22;;;14.93;100.00
76229;BME280;65021;53.174;18.160;2023-08-24T03:16:34;101269.17;;;14.96;100.00
76229;BME280;65021;53.174;18.160;2023-08-24T03:19:03;101271.05;;;14.98;100.00
76229;BME280;65021;53.174;18.160;2023-08-24T03:21:30;101272.98;;;14.99;100.00
76229;BME280;65021;53.174;18.160;2023-08-24T03:23:56;101275.27;;;15.00;100.00
76229;BME280;65021;53.174;18.160;2023-08-24T03:26:23;101275.92;;;15.02;100.00
76229;BME280;65021;53.174;18.160;2023-08-24T03:28:49;101285.98;;;15.07;100.00
76229;BME280;65021;53.174;18.160;2023-08-24T03:31:16;101279.79;;;15.08;100.00
76229;BME280;65021;53.174;18.160;2023-08-24T03:33:43;101282.00;;;15.12;100.00
76229;BME280;65021;53.174;18.160;2023-08-24T03:36:09;101285.29;;;15.10;100.00
76229;BME280;65021;53.174;18.160;2023-08-24T03:38:36;101279.15;;;15.06;100.00
76229;BME280;65021;53.174;18.160;2023-08-24T03:41:03;101277.75;;;15.07;100.00
76229;BME280;65021;53.174;18.160;2023-08-24T03:43:31;101278.59;;;15.06;100.00
76229;BME280;65021;53.174;18.160;2023-08-24T03:46:00;101272.70;;;15.05;100.00
76229;BME280;65021;53.174;18.160;2023-08-24T03:48:27;101270.94;;;15.03;100.00
76229;BME280;65021;53.174;18.160;2023-08-24T03:50:54;101275.08;;;15.02;100.00
76229;BME280;65021;53.174;18.160;2023-08-24T03:53:22;101272.66;;;15.01;100.00
76229;BME280;65021;53.174;18.160;2023-08-24T03:55:50;101276.47;;;15.01;100.00
76229;BME280;65021;53.174;18.160;2023-08-24T03:58:17;101276.17;;;15.05;100.00
76229;BME280;65021;53.174;18.160;2023-08-24T04:00:44;101273.30;;;15.09;100.00
76229;BME280;65021;53.174;18.160;2023-08-24T04:03:11;101270.02;;;15.11;100.00
76229;BME280;65021;53.174;18.160;2023-08-24T04:05:38;101269.63;;;15.12;100.00
76229;BME280;65021;53.174;18.160;2023-08-24T04:08:04;101272.45;;;15.13;100.00
76229;BME280;65021;53.174;18.160;2023-08-24T04:10:31;101274.36;;;15.14;100.00
76229;BME280;65021;53.174;18.160;2023-08-24T04:12:58;101283.40;;;15.16;100.00
76229;BME280;65021;53.174;18.160;2023-08-24T04:15:25;101287.67;;;15.18;100.00
76229;BME280;65021;53.174;18.160;2023-08-24T04:17:51;101285.88;;;15.28;100.00
76229;BME280;65021;53.174;18.160;2023-08-24T04:20:18;101286.55;;;15.43;100.00
76229;BME280;65021;53.174;18.160;2023-08-24T04:22:44;101288.16;;;15.53;100.00
76229;BME280;65021;53.174;18.160;2023-08-24T04:25:11;101298.37;;;15.64;100.00
76229;BME280;65021;53.174;18.160;2023-08-24T04:27:37;101300.81;;;15.76;100.00
76229;BME280;65021;53.174;18.160;2023-08-24T04:30:04;101299.56;;;15.87;100.00
76229;BME280;65021;53.174;18.160;2023-08-24T04:32:34;101295.81;;;15.97;100.00
76229;BME280;65021;53.174;18.160;2023-08-24T04:35:00;101298.52;;;16.07;100.00
76229;BME280;65021;53.174;18.160;2023-08-24T04:37:27;101298.41;;;16.13;100.00
76229;BME280;65021;53.174;18.160;2023-08-24T04:39:53;101295.94;;;16.21;100.00
76229;BME280;65021;53.174;18.160;2023-08-24T04:42:20;101292.97;;;16.31;100.00
76229;BME280;65021;53.174;18.160;2023-08-24T04:44:46;101298.48;;;16.43;100.00
76229;BME280;65021;53.174;18.160;2023-08-24T04:47:13;101298.30;;;16.56;100.00
76229;BME280;65021;53.174;18.160;2023-08-24T04:49:40;101294.83;;;16.68;100.00
76229;BME280;65021;53.174;18.160;2023-08-24T04:52:06;101289.61;;;16.83;100.00
76229;BME280;65021;53.174;18.160;2023-08-24T04:54:33;101282.87;;;17.00;100.00
76229;BME280;65021;53.174;18.160;2023-08-24T04:57:00;101280.62;;;17.16;100.00
76229;BME280;65021;53.174;18.160;2023-08-24T04:59:26;101278.17;;;17.29;100.00
76229;BME280;65021;53.174;18.160;2023-08-24T05:01:53;101284.83;;;17.40;100.00
76229;BME280;65021;53.174;18.160;2023-08-24T05:04:19;101290.29;;;17.49;99.93
76229;BME280;65021;53.174;18.160;2023-08-24T05:06:46;101287.34;;;17.72;99.87
76229;BME280;65021;53.174;18.160;2023-08-24T05:09:13;101287.65;;;18.19;99.83
76229;BME280;65021;53.174;18.160;2023-08-24T05:11:39;101285.96;;;18.56;98.23
76229;BME280;65021;53.174;18.160;2023-08-24T05:14:06;101286.60;;;18.64;96.56
76229;BME280;65021;53.174;18.160;2023-08-24T05:16:33;101291.39;;;18.67;95.82
76229;BME280;65021;53.174;18.160;2023-08-24T05:18:59;101295.35;;;18.74;95.98
76229;BME280;65021;53.174;18.160;2023-08-24T05:21:26;101297.28;;;18.83;95.07
76229;BME280;65021;53.174;18.160;2023-08-24T05:23:52;101300.48;;;18.99;95.11
76229;BME280;65021;53.174;18.160;2023-08-24T05:26:19;101298.20;;;19.14;95.81
76229;BME280;65021;53.174;18.160;2023-08-24T05:28:49;101295.95;;;19.35;95.82
76229;BME280;65021;53.174;18.160;2023-08-24T05:31:16;101295.59;;;19.58;95.15
76229;BME280;65021;53.174;18.160;2023-08-24T05:33:43;101294.09;;;19.75;95.08
76229;BME280;65021;53.174;18.160;2023-08-24T05:36:09;101295.63;;;19.87;93.98
76229;BME280;65021;53.174;18.160;2023-08-24T05:38:36;101299.09;;;19.85;92.42
76229;BME280;65021;53.174;18.160;2023-08-24T05:41:03;101301.05;;;19.87;93.62
76229;BME280;65021;53.174;18.160;2023-08-24T05:43:30;101305.02;;;19.97;93.63
76229;BME280;65021;53.174;18.160;2023-08-24T05:45:56;101302.48;;;20.04;90.31
76229;BME280;65021;53.174;18.160;2023-08-24T05:48:23;101301.24;;;20.09;91.51
76229;BME280;65021;53.174;18.160;2023-08-24T05:50:49;101303.56;;;20.39;92.02
76229;BME280;65021;53.174;18.160;2023-08-24T05:53:16;101302.35;;;20.57;90.98
76229;BME280;65021;53.174;18.160;2023-08-24T05:55:43;101303.02;;;20.59;87.44
76229;BME280;65021;53.174;18.160;2023-08-24T05:58:09;101305.77;;;20.50;88.33
76229;BME280;65021;53.174;18.160;2023-08-24T06:00:36;101303.67;;;20.46;87.08
76229;BME280;65021;53.174;18.160;2023-08-24T06:03:03;101301.15;;;20.54;87.38
76229;BME280;65021;53.174;18.160;2023-08-24T06:05:30;101302.77;;;20.65;87.03
76229;BME280;65021;53.174;18.160;2023-08-24T06:07:57;101304.95;;;20.80;87.79
76229;BME280;65021;53.174;18.160;2023-08-24T06:10:24;101300.77;;;21.04;86.67
76229;BME280;65021;53.174;18.160;2023-08-24T06:12:52;101297.98;;;21.31;86.85
76229;BME280;65021;53.174;18.160;2023-08-24T06:15:19;101294.40;;;21.43;86.87
76229;BME280;65021;53.174;18.160;2023-08-24T06:17:50;101297.92;;;21.49;84.81
76229;BME280;65021;53.174;18.160;2023-08-24T06:20:17;101300.35;;;21.54;84.71
76229;BME280;65021;53.174;18.160;2023-08-24T06:22:44;101297.63;;;21.51;81.37
76229;BME280;65021;53.174;18.160;2023-08-24T06:25:11;101299.45;;;21.41;81.14
76229;BME280;65021;53.174;18.160;2023-08-24T06:27:37;101300.38;;;21.41;80.65
76229;BME280;65021;53.174;18.160;2023-08-24T06:30:04;101300.66;;;21.34;79.06
76229;BME280;65021;53.174;18.160;2023-08-24T06:32:31;101299.45;;;21.34;79.90
76229;BME280;65021;53.174;18.160;2023-08-24T06:34:57;101295.52;;;21.47;79.41
76229;BME280;65021;53.174;18.160;2023-08-24T06:37:24;101296.35;;;21.60;80.82
76229;BME280;65021;53.174;18.160;2023-08-24T06:39:51;101297.38;;;21.85;80.68
76229;BME280;65021;53.174;18.160;2023-08-24T06:42:18;101298.98;;;22.01;77.73
76229;BME280;65021;53.174;18.160;2023-08-24T06:44:44;101301.71;;;22.09;76.82
76229;BME280;65021;53.174;18.160;2023-08-24T06:47:11;101305.77;;;22.20;78.51
76229;BME280;65021;53.174;18.160;2023-08-24T06:49:37;101308.72;;;22.44;78.83
76229;BME280;65021;53.174;18.160;2023-08-24T06:52:04;101309.41;;;22.71;77.78
76229;BME280;65021;53.174;18.160;2023-08-24T06:54:31;101307.84;;;22.95;76.38
76229;BME280;65021;53.174;18.160;2023-08-24T06:56:57;101301.75;;;23.14;75.45
76229;BME280;65021;53.174;18.160;2023-08-24T06:59:24;101304.69;;;23.30;74.71
76229;BME280;65021;53.174;18.160;2023-08-24T07:01:50;101303.44;;;23.51;73.00
76229;BME280;65021;53.174;18.160;2023-08-24T07:04:18;101303.07;;;23.45;68.06
76229;BME280;65021;53.174;18.160;2023-08-24T07:06:44;101309.89;;;23.51;72.89
76229;BME280;65021;53.174;18.160;2023-08-24T07:09:11;101309.40;;;23.62;68.10
76229;BME280;65021;53.174;18.160;2023-08-24T07:11:38;101309.45;;;23.49;68.23
76229;BME280;65021;53.174;18.160;2023-08-24T07:14:04;101308.91;;;23.59;70.40
76229;BME280;65021;53.174;18.160;2023-08-24T07:16:31;101310.77;;;23.81;69.80
76229;BME280;65021;53.174;18.160;2023-08-24T07:18:57;101312.49;;;23.97;70.05
76229;BME280;65021;53.174;18.160;2023-08-24T07:21:24;101313.60;;;24.29;70.25
76229;BME280;65021;53.174;18.160;2023-08-24T07:23:51;101322.32;;;24.59;67.69
76229;BME280;65021;53.174;18.160;2023-08-24T07:26:18;101322.22;;;24.58;64.53
76229;BME280;65021;53.174;18.160;2023-08-24T07:28:44;101318.86;;;24.44;61.96
76229;BME280;65021;53.174;18.160;2023-08-24T07:31:11;101317.70;;;24.29;57.19
76229;BME280;65021;53.174;18.160;2023-08-24T07:33:38;101317.05;;;24.21;58.38
76229;BME280;65021;53.174;18.160;2023-08-24T07:36:05;101314.23;;;24.26;57.85
76229;BME280;65021;53.174;18.160;2023-08-24T07:38:32;101318.81;;;24.16;56.05
76229;BME280;65021;53.174;18.160;2023-08-24T07:40:58;101317.86;;;24.23;57.95
76229;BME280;65021;53.174;18.160;2023-08-24T07:43:25;101318.72;;;24.43;57.45
76229;BME280;65021;53.174;18.160;2023-08-24T07:45:51;101324.07;;;24.61;56.53
76229;BME280;65021;53.174;18.160;2023-08-24T07:48:18;101323.36;;;24.66;55.56
76229;BME280;65021;53.174;18.160;2023-08-24T07:50:45;101319.78;;;24.72;55.13
76229;BME280;65021;53.174;18.160;2023-08-24T07:53:12;101318.60;;;24.76;55.40
76229;BME280;65021;53.174;18.160;2023-08-24T07:55:38;101317.52;;;24.85;56.57
76229;BME280;65021;53.174;18.160;2023-08-24T07:58:05;101319.30;;;25.03;56.26
76229;BME280;65021;53.174;18.160;2023-08-24T08:00:31;101318.11;;;25.23;54.26
76229;BME280;65021;53.174;18.160;2023-08-24T08:02:58;101315.81;;;25.20;52.14
76229;BME280;65021;53.174;18.160;2023-08-24T08:05:25;101319.41;;;25.19;53.07
76229;BME280;65021;53.174;18.160;2023-08-24T08:07:52;101318.56;;;25.31;52.12
76229;BME280;65021;53.174;18.160;2023-08-24T08:10:19;101323.23;;;25.43;52.52
76229;BME280;65021;53.174;18.160;2023-08-24T08:12:47;101322.77;;;25.55;51.15
76229;BME280;65021;53.174;18.160;2023-08-24T08:15:14;101325.70;;;25.55;51.03
76229;BME280;65021;53.174;18.160;2023-08-24T08:17:40;101324.64;;;25.60;52.35
76229;BME280;65021;53.174;18.160;2023-08-24T08:20:08;101327.33;;;25.60;49.50
76229;BME280;65021;53.174;18.160;2023-08-24T08:22:36;101328.08;;;25.49;49.99
76229;BME280;65021;53.174;18.160;2023-08-24T08:25:05;101327.20;;;25.51;49.91
76229;BME280;65021;53.174;18.160;2023-08-24T08:27:32;101323.32;;;25.49;49.50
76229;BME280;65021;53.174;18.160;2023-08-24T08:29:59;101319.05;;;25.57;50.48
76229;BME280;65021;53.174;18.160;2023-08-24T08:32:26;101318.58;;;25.78;50.23
76229;BME280;65021;53.174;18.160;2023-08-24T08:34:56;101318.34;;;25.99;49.55
76229;BME280;65021;53.174;18.160;2023-08-24T08:37:27;101316.40;;;26.26;49.88
76229;BME280;65021;53.174;18.160;2023-08-24T08:39:54;101317.10;;;26.52;49.49
76229;BME280;65021;53.174;18.160;2023-08-24T08:42:20;101320.80;;;26.75;47.65
76229;BME280;65021;53.174;18.160;2023-08-24T08:44:48;101317.98;;;26.89;47.56
76229;BME280;65021;53.174;18.160;2023-08-24T08:47:15;101315.02;;;26.97;46.64
76229;BME280;65021;53.174;18.160;2023-08-24T08:49:45;101315.14;;;26.80;43.38
76229;BME280;65021;53.174;18.160;2023-08-24T08:52:14;101314.23;;;26.67;44.47
76229;BME280;65021;53.174;18.160;2023-08-24T08:54:40;101316.81;;;26.79;44.60
76229;BME280;65021;53.174;18.160;2023-08-24T08:57:08;101315.55;;;26.98;44.22
76229;BME280;65021;53.174;18.160;2023-08-24T08:59:34;101315.80;;;26.86;42.43
76229;BME280;65021;53.174;18.160;2023-08-24T09:02:03;101318.52;;;26.79;42.29
76229;BME280;65021;53.174;18.160;2023-08-24T09:04:31;101323.48;;;26.75;41.50
76229;BME280;65021;53.174;18.160;2023-08-24T09:06:58;101327.01;;;26.76;42.30
76229;BME280;65021;53.174;18.160;2023-08-24T09:09:27;101320.88;;;26.90;43.55
76229;BME280;65021;53.174;18.160;2023-08-24T09:11:54;101319.17;;;27.23;43.37
76229;BME280;65021;53.174;18.160;2023-08-24T09:14:21;101316.77;;;27.51;43.06
76229;BME280;65021;53.174;18.160;2023-08-24T09:16:47;101314.15;;;27.69;42.44
76229;BME280;65021;53.174;18.160;2023-08-24T09:19:14;101316.58;;;27.58;40.17
76229;BME280;65021;53.174;18.160;2023-08-24T09:21:40;101315.08;;;27.34;40.39
76229;BME280;65021;53.174;18.160;2023-08-24T09:24:08;101314.33;;;27.18;40.41
76229;BME280;65021;53.174;18.160;2023-08-24T09:26:37;101308.29;;;27.28;41.87
76229;BME280;65021;53.174;18.160;2023-08-24T09:29:15;101304.50;;;27.40;40.88
76229;BME280;65021;53.174;18.160;2023-08-24T09:31:43;101302.45;;;27.42;41.05
76229;BME280;65021;53.174;18.160;2023-08-24T09:34:10;101299.55;;;27.39;41.50
76229;BME280;65021;53.174;18.160;2023-08-24T09:36:38;101301.44;;;27.41;40.63
76229;BME280;65021;53.174;18.160;2023-08-24T09:39:05;101301.44;;;27.09;39.39
76229;BME280;65021;53.174;18.160;2023-08-24T09:44:06;101294.02;;;26.65;40.67
76229;BME280;65021;53.174;18.160;2023-08-24T09:46:34;101296.67;;;26.70;41.19
76229;BME280;65021;53.174;18.160;2023-08-24T09:49:01;101293.02;;;26.89;41.00
76229;BME280;65021;53.174;18.160;2023-08-24T09:51:27;101296.20;;;27.06;40.41
76229;BME280;65021;53.174;18.160;2023-08-24T09:53:57;101292.81;;;27.10;39.76
76229;BME280;65021;53.174;18.160;2023-08-24T09:56:25;101292.84;;;27.19;40.32
76229;BME280;65021;53.174;18.160;2023-08-24T09:58:54;101294.14;;;27.52;40.82
76229;BME280;65021;53.174;18.160;2023-08-24T10:01:22;101294.02;;;27.49;38.40
76229;BME280;65021;53.174;18.160;2023-08-24T10:03:51;101293.09;;;27.33;38.94
76229;BME280;65021;53.174;18.160;2023-08-24T10:06:27;101288.62;;;27.41;39.66
76229;BME280;65021;53.174;18.160;2023-08-24T10:08:58;101284.48;;;27.49;39.24
76229;BME280;65021;53.174;18.160;2023-08-24T10:11:28;101281.69;;;27.69;39.96
76229;BME280;65021;53.174;18.160;2023-08-24T10:14:32;101277.67;;;28.09;39.95
76229;BME280;65021;53.174;18.160;2023-08-24T10:17:02;101276.19;;;28.28;38.51
76229;BME280;65021;53.174;18.160;2023-08-24T10:19:30;101271.39;;;28.33;38.58
76229;BME280;65021;53.174;18.160;2023-08-24T10:21:57;101267.62;;;28.42;38.25
76229;BME280;65021;53.174;18.160;2023-08-24T10:24:27;101270.91;;;28.47;38.69
76229;BME280;65021;53.174;18.160;2023-08-24T10:26:54;101264.77;;;28.37;38.22
76229;BME280;65021;53.174;18.160;2023-08-24T10:29:21;101264.16;;;28.18;38.38
76229;BME280;65021;53.174;18.160;2023-08-24T10:31:49;101258.89;;;28.09;38.97
76229;BME280;65021;53.174;18.160;2023-08-24T10:34:16;101256.12;;;27.90;38.49
76229;BME280;65021;53.174;18.160;2023-08-24T10:36:43;101253.61;;;27.82;39.04
76229;BME280;65021;53.174;18.160;2023-08-24T10:39:09;101257.80;;;27.58;38.86
76229;BME280;65021;53.174;18.160;2023-08-24T10:41:52;101261.95;;;27.25;38.78
76229;BME280;65021;53.174;18.160;2023-08-24T10:44:35;101258.81;;;27.14;39.36
76229;BME280;65021;53.174;18.160;2023-08-24T10:47:22;101248.13;;;27.24;40.04
76229;BME280;65021;53.174;18.160;2023-08-24T10:52:23;101241.02;;;27.50;39.17
76229;BME280;65021;53.174;18.160;2023-08-24T10:54:51;101241.37;;;27.37;38.84
76229;BME280;65021;53.174;18.160;2023-08-24T10:57:25;101243.78;;;27.18;39.27
76229;BME280;65021;53.174;18.160;2023-08-24T10:59:58;101240.54;;;27.10;39.74
76229;BME280;65021;53.174;18.160;2023-08-24T11:02:26;101236.03;;;27.18;39.57
76229;BME280;65021;53.174;18.160;2023-08-24T11:07:32;101238.77;;;27.11;39.42
76229;BME280;65021;53.174;18.160;2023-08-24T11:09:59;101233.57;;;27.17;39.53
76229;BME280;65021;53.174;18.160;2023-08-24T11:15:44;101221.87;;;27.34;38.96
76229;BME280;65021;53.174;18.160;2023-08-24T11:18:25;101224.18;;;27.09;39.52
76229;BME280;65021;53.174;18.160;2023-08-24T11:20:59;101222.09;;;26.98;39.88
76229;BME280;65021;53.174;18.160;2023-08-24T11:23:26;101219.44;;;26.85;40.27
76229;BME280;65021;53.174;18.160;2023-08-24T11:25:54;101222.48;;;26.80;40.33
76229;BME280;65021;53.174;18.160;2023-08-24T11:28:27;101223.98;;;26.79;40.18
76229;BME280;65021;53.174;18.160;2023-08-24T11:30:56;101220.91;;;26.81;40.16
76229;BME280;65021;53.174;18.160;2023-08-24T11:33:41;101214.39;;;26.85;40.09
76229;BME280;65021;53.174;18.160;2023-08-24T11:36:08;101206.17;;;26.65;39.97
76229;BME280;65021;53.174;18.160;2023-08-24T11:38:38;101206.58;;;26.57;40.57
76229;BME280;65021;53.174;18.160;2023-08-24T11:41:16;101201.59;;;26.56;40.91
76229;BME280;65021;53.174;18.160;2023-08-24T11:43:43;101204.48;;;26.48;40.36
76229;BME280;65021;53.174;18.160;2023-08-24T11:46:11;101203.59;;;26.41;40.53
76229;BME280;65021;53.174;18.160;2023-08-24T11:48:38;101200.56;;;26.52;40.62
76229;BME280;65021;53.174;18.160;2023-08-24T11:51:10;101195.46;;;26.52;40.63
76229;BME280;65021;53.174;18.160;2023-08-24T11:53:40;101197.09;;;26.28;40.71
76229;BME280;65021;53.174;18.160;2023-08-24T11:56:11;101193.48;;;26.25;41.29
76229;BME280;65021;53.174;18.160;2023-08-24T11:58:39;101192.05;;;26.36;41.22
76229;BME280;65021;53.174;18.160;2023-08-24T12:01:08;101186.90;;;26.54;40.85
76229;BME280;65021;53.174;18.160;2023-08-24T12:03:35;101184.23;;;26.63;41.24
76229;BME280;65021;53.174;18.160;2023-08-24T12:06:02;101181.66;;;26.61;41.23
76229;BME280;65021;53.174;18.160;2023-08-24T12:08:40;101182.52;;;26.51;41.31
76229;BME280;65021;53.174;18.160;2023-08-24T12:11:15;101181.48;;;26.55;41.21
76229;BME280;65021;53.174;18.160;2023-08-24T12:13:50;101181.96;;;26.78;41.29
76229;BME280;65021;53.174;18.160;2023-08-24T12:16:17;101180.75;;;26.86;40.71
76229;BME280;65021;53.174;18.160;2023-08-24T12:18:58;101179.18;;;26.79;40.79
76229;BME280;65021;53.174;18.160;2023-08-24T12:21:31;101178.90;;;26.73;40.92
76229;BME280;65021;53.174;18.160;2023-08-24T12:24:02;101172.67;;;26.61;41.36
76229;BME280;65021;53.174;18.160;2023-08-24T12:26:32;101168.96;;;26.52;41.36
76229;BME280;65021;53.174;18.160;2023-08-24T12:29:04;101168.70;;;26.46;41.18
76229;BME280;65021;53.174;18.160;2023-08-24T12:31:32;101167.91;;;26.48;41.29
76229;BME280;65021;53.174;18.160;2023-08-24T12:34:04;101166.91;;;26.52;41.89
76229;BME280;65021;53.174;18.160;2023-08-24T12:36:33;101164.29;;;26.61;41.86
76229;BME280;65021;53.174;18.160;2023-08-24T12:39:00;101160.73;;;26.83;41.24
76229;BME280;65021;53.174;18.160;2023-08-24T12:41:26;101158.95;;;26.85;41.22
76229;BME280;65021;53.174;18.160;2023-08-24T12:43:53;101156.22;;;26.90;41.14
76229;BME280;65021;53.174;18.160;2023-08-24T12:46:19;101149.67;;;26.99;40.87
76229;BME280;65021;53.174;18.160;2023-08-24T12:48:46;101147.02;;;27.15;41.04
76229;BME280;65021;53.174;18.160;2023-08-24T12:51:13;101150.03;;;27.25;40.44
76229;BME280;65021;53.174;18.160;2023-08-24T12:53:39;101147.46;;;27.11;39.89
76229;BME280;65021;53.174;18.160;2023-08-24T12:56:06;101146.10;;;26.97;40.38
76229;BME280;65021;53.174;18.160;2023-08-24T12:58:32;101145.56;;;26.86;40.69
76229;BME280;65021;53.174;18.160;2023-08-24T13:01:00;101140.28;;;26.79;41.03